sensor_id;sensor_type;location;lat;lon;timestamp;temperature;humidity
21801;DHT22;11062;51.164;16.924;2023-03-05T00:01:36;25.50;27.00
21801;DHT22;11062;51.164;16.924;2023-03-05T00:04:03;25.60;27.10
21801;DHT22;11062;51.164;16.924;2023-03-05T00:06:31;25.70;27.00
21801;DHT22;11062;51.164;16.924;2023-03-05T00:08:58;25.80;26.70
21801;DHT22;11062;51.164;16.924;2023-03-05T00:11:25;25.90;26.80
21801;DHT22;11062;51.164;16.924;2023-03-05T00:13:56;25.90;26.80
21801;DHT22;11062;51.164;16.924;2023-03-05T00:16:22;26.00;26.70
21801;DHT22;11062;51.164;16.924;2023-03-05T00:18:51;26.10;27.20
21801;DHT22;11062;51.164;16.924;2023-03-05T00:21:30;26.10;26.70
21801;DHT22;11062;51.164;16.924;2023-03-05T00:23:57;26.20;26.70
21801;DHT22;11062;51.164;16.924;2023-03-05T00:26:26;26.10;26.50
21801;DHT22;11062;51.164;16.924;2023-03-05T00:28:54;25.90;26.40
21801;DHT22;11062;51.164;16.924;2023-03-05T00:31:25;26.10;26.60
21801;DHT22;11062;51.164;16.924;2023-03-05T00:33:55;26.10;26.60
21801;DHT22;11062;51.164;16.924;2023-03-05T00:36:23;26.10;26.60
21801;DHT22;11062;51.164;16.924;2023-03-05T00:38:49;26.10;26.80
21801;DHT22;11062;51.164;16.924;2023-03-05T00:41:15;26.20;27.20
21801;DHT22;11062;51.164;16.924;2023-03-05T00:43:41;26.20;27.10
21801;DHT22;11062;51.164;16.924;2023-03-05T00:46:07;26.10;27.60
21801;DHT22;11062;51.164;16.924;2023-03-05T00:48:33;26.20;27.20
21801;DHT22;11062;51.164;16.924;2023-03-05T00:50:59;26.30;27.10
21801;DHT22;11062;51.164;16.924;2023-03-05T00:53:25;26.40;26.80
21801;DHT22;11062;51.164;16.924;2023-03-05T00:55:51;26.30;26.50
21801;DHT22;11062;51.164;16.924;2023-03-05T00:58:17;26.10;26.50
21801;DHT22;11062;51.164;16.924;2023-03-05T01:00:46;26.20;26.50
21801;DHT22;11062;51.164;16.924;2023-03-05T01:03:16;26.20;26.70
21801;DHT22;11062;51.164;16.924;2023-03-05T01:05:42;26.10;26.80
21801;DHT22;11062;51.164;16.924;2023-03-05T01:08:08;26.10;27.00
21801;DHT22;11062;51.164;16.924;2023-03-05T01:10:37;26.00;26.90
21801;DHT22;11062;51.164;16.924;2023-03-05T01:13:03;26.10;27.10
21801;DHT22;11062;51.164;16.924;2023-03-05T01:15:29;25.90;27.00
21801;DHT22;11062;51.164;16.924;2023-03-05T01:17:55;26.00;27.10
21801;DHT22;11062;51.164;16.924;2023-03-05T01:20:21;26.00;27.20
21801;DHT22;11062;51.164;16.924;2023-03-05T01:22:47;25.80;27.30
21801;DHT22;11062;51.164;16.924;2023-03-05T01:25:14;25.90;27.60
21801;DHT22;11062;51.164;16.924;2023-03-05T01:27:41;25.90;27.80
21801;DHT22;11062;51.164;16.924;2023-03-05T01:30:08;26.00;27.90
21801;DHT22;11062;51.164;16.924;2023-03-05T01:32:34;25.80;27.90
21801;DHT22;11062;51.164;16.924;2023-03-05T01:35:01;25.80;27.90
21801;DHT22;11062;51.164;16.924;2023-03-05T01:37:27;25.80;28.20
21801;DHT22;11062;51.164;16.924;2023-03-05T01:39:53;25.70;28.20
21801;DHT22;11062;51.164;16.924;2023-03-05T01:42:19;25.80;28.40
21801;DHT22;11062;51.164;16.924;2023-03-05T01:45:11;25.80;28.60
21801;DHT22;11062;51.164;16.924;2023-03-05T01:47:38;25.70;28.70
21801;DHT22;11062;51.164;16.924;2023-03-05T01:50:07;25.50;28.90
21801;DHT22;11062;51.164;16.924;2023-03-05T01:52:36;25.60;29.10
21801;DHT22;11062;51.164;16.924;2023-03-05T01:55:24;25.50;29.20
21801;DHT22;11062;51.164;16.924;2023-03-05T01:58:01;25.60;29.30
21801;DHT22;11062;51.164;16.924;2023-03-05T02:00:35;25.60;29.60
21801;DHT22;11062;51.164;16.924;2023-03-05T02:03:06;25.60;29.60
21801;DHT22;11062;51.164;16.924;2023-03-05T02:05:35;25.60;29.70
21801;DHT22;11062;51.164;16.924;2023-03-05T02:08:05;25.50;29.60
21801;DHT22;11062;51.164;16.924;2023-03-05T02:10:36;25.30;29.70
21801;DHT22;11062;51.164;16.924;2023-03-05T02:13:08;25.40;29.90
21801;DHT22;11062;51.164;16.924;2023-03-05T02:15:35;25.40;30.00
21801;DHT22;11062;51.164;16.924;2023-03-05T02:18:02;25.30;30.10
21801;DHT22;11062;51.164;16.924;2023-03-05T02:20:41;25.20;30.00
21801;DHT22;11062;51.164;16.924;2023-03-05T02:23:13;25.20;29.90
21801;DHT22;11062;51.164;16.924;2023-03-05T02:25:39;25.20;30.00
21801;DHT22;11062;51.164;16.924;2023-03-05T02:28:17;25.10;30.00
21801;DHT22;11062;51.164;16.924;2023-03-05T02:30:44;25.10;30.00
21801;DHT22;11062;51.164;16.924;2023-03-05T02:33:13;24.90;29.70
21801;DHT22;11062;51.164;16.924;2023-03-05T02:35:39;24.70;29.90
21801;DHT22;11062;51.164;16.924;2023-03-05T02:38:07;24.50;30.00
21801;DHT22;11062;51.164;16.924;2023-03-05T02:40:33;24.50;30.70
21801;DHT22;11062;51.164;16.924;2023-03-05T02:43:01;24.50;30.20
21801;DHT22;11062;51.164;16.924;2023-03-05T02:45:27;24.40;29.90
21801;DHT22;11062;51.164;16.924;2023-03-05T02:47:53;24.40;30.10
21801;DHT22;11062;51.164;16.924;2023-03-05T02:50:20;24.00;30.00
21801;DHT22;11062;51.164;16.924;2023-03-05T02:52:46;24.20;29.90
21801;DHT22;11062;51.164;16.924;2023-03-05T02:55:11;24.00;30.20
21801;DHT22;11062;51.164;16.924;2023-03-05T02:57:37;23.90;29.90
21801;DHT22;11062;51.164;16.924;2023-03-05T03:00:04;24.00;30.10
21801;DHT22;11062;51.164;16.924;2023-03-05T03:02:31;24.00;29.90
21801;DHT22;11062;51.164;16.924;2023-03-05T03:04:56;24.00;29.90
21801;DHT22;11062;51.164;16.924;2023-03-05T03:07:22;23.70;29.80
21801;DHT22;11062;51.164;16.924;2023-03-05T03:09:48;23.80;30.00
21801;DHT22;11062;51.164;16.924;2023-03-05T03:12:16;23.60;29.90
21801;DHT22;11062;51.164;16.924;2023-03-05T03:14:42;23.70;30.00
21801;DHT22;11062;51.164;16.924;2023-03-05T03:17:14;23.90;30.10
21801;DHT22;11062;51.164;16.924;2023-03-05T03:19:40;23.90;30.00
21801;DHT22;11062;51.164;16.924;2023-03-05T03:22:07;24.10;30.00
21801;DHT22;11062;51.164;16.924;2023-03-05T03:24:34;24.20;29.90
21801;DHT22;11062;51.164;16.924;2023-03-05T03:27:01;24.10;30.00
21801;DHT22;11062;51.164;16.924;2023-03-05T03:29:27;24.30;29.90
21801;DHT22;11062;51.164;16.924;2023-03-05T03:31:53;24.20;29.80
21801;DHT22;11062;51.164;16.924;2023-03-05T03:34:19;24.30;29.80
21801;DHT22;11062;51.164;16.924;2023-03-05T03:36:47;24.40;30.30
21801;DHT22;11062;51.164;16.924;2023-03-05T03:39:18;24.30;29.70
21801;DHT22;11062;51.164;16.924;2023-03-05T03:41:49;24.50;29.80
21801;DHT22;11062;51.164;16.924;2023-03-05T03:44:17;24.60;29.80
21801;DHT22;11062;51.164;16.924;2023-03-05T03:46:44;24.30;29.70
21801;DHT22;11062;51.164;16.924;2023-03-05T03:49:18;24.60;29.90
21801;DHT22;11062;51.164;16.924;2023-03-05T03:51:45;24.70;29.90
21801;DHT22;11062;51.164;16.924;2023-03-05T03:54:12;24.70;29.70
21801;DHT22;11062;51.164;16.924;2023-03-05T03:56:38;24.80;29.80
21801;DHT22;11062;51.164;16.924;2023-03-05T03:59:04;24.70;29.70
21801;DHT22;11062;51.164;16.924;2023-03-05T04:01:29;24.70;29.90
21801;DHT22;11062;51.164;16.924;2023-03-05T04:03:55;24.70;29.80
21801;DHT22;11062;51.164;16.924;2023-03-05T04:06:21;24.60;29.60
21801;DHT22;11062;51.164;16.924;2023-03-05T04:08:47;24.70;29.80
21801;DHT22;11062;51.164;16.924;2023-03-05T04:11:14;24.60;29.90
21801;DHT22;11062;51.164;16.924;2023-03-05T04:13:41;24.70;30.00
21801;DHT22;11062;51.164;16.924;2023-03-05T04:16:07;24.70;30.00
21801;DHT22;11062;51.164;16.924;2023-03-05T04:18:33;24.60;30.20
21801;DHT22;11062;51.164;16.924;2023-03-05T04:20:59;24.60;30.10
21801;DHT22;11062;51.164;16.924;2023-03-05T04:23:25;24.60;30.30
21801;DHT22;11062;51.164;16.924;2023-03-05T04:25:50;24.50;30.50
21801;DHT22;11062;51.164;16.924;2023-03-05T04:28:16;24.50;30.50
21801;DHT22;11062;51.164;16.924;2023-03-05T04:30:42;24.30;30.30
21801;DHT22;11062;51.164;16.924;2023-03-05T04:33:08;24.50;30.60
21801;DHT22;11062;51.164;16.924;2023-03-05T04:35:34;24.50;30.60
21801;DHT22;11062;51.164;16.924;2023-03-05T04:38:00;24.50;30.60
21801;DHT22;11062;51.164;16.924;2023-03-05T04:40:29;24.50;30.70
21801;DHT22;11062;51.164;16.924;2023-03-05T04:42:55;24.50;30.80
21801;DHT22;11062;51.164;16.924;2023-03-05T04:45:21;24.30;30.70
21801;DHT22;11062;51.164;16.924;2023-03-05T04:47:47;24.50;30.80
21801;DHT22;11062;51.164;16.924;2023-03-05T04:50:13;24.50;30.90
21801;DHT22;11062;51.164;16.924;2023-03-05T04:52:41;24.60;30.70
21801;DHT22;11062;51.164;16.924;2023-03-05T04:55:08;24.60;30.80
21801;DHT22;11062;51.164;16.924;2023-03-05T04:57:34;24.60;30.80
21801;DHT22;11062;51.164;16.924;2023-03-05T05:00:06;24.60;30.90
21801;DHT22;11062;51.164;16.924;2023-03-05T05:02:33;24.60;31.00
21801;DHT22;11062;51.164;16.924;2023-03-05T05:04:59;24.40;31.10
21801;DHT22;11062;51.164;16.924;2023-03-05T05:07:25;24.30;31.10
21801;DHT22;11062;51.164;16.924;2023-03-05T05:09:50;24.20;31.30
21801;DHT22;11062;51.164;16.924;2023-03-05T05:12:19;24.20;31.20
21801;DHT22;11062;51.164;16.924;2023-03-05T05:14:45;24.30;31.30
21801;DHT22;11062;51.164;16.924;2023-03-05T05:17:11;24.30;31.30
21801;DHT22;11062;51.164;16.924;2023-03-05T05:19:37;24.40;31.20
21801;DHT22;11062;51.164;16.924;2023-03-05T05:22:05;24.50;31.00
21801;DHT22;11062;51.164;16.924;2023-03-05T05:24:31;24.50;31.10
21801;DHT22;11062;51.164;16.924;2023-03-05T05:26:57;24.80;31.00
21801;DHT22;11062;51.164;16.924;2023-03-05T05:29:25;24.80;31.10
21801;DHT22;11062;51.164;16.924;2023-03-05T05:31:51;24.90;30.70
21801;DHT22;11062;51.164;16.924;2023-03-05T05:34:21;25.10;30.80
21801;DHT22;11062;51.164;16.924;2023-03-05T05:36:51;25.10;30.60
21801;DHT22;11062;51.164;16.924;2023-03-05T05:39:17;25.10;30.70
21801;DHT22;11062;51.164;16.924;2023-03-05T05:41:43;25.10;30.80
21801;DHT22;11062;51.164;16.924;2023-03-05T05:44:09;25.10;30.80
21801;DHT22;11062;51.164;16.924;2023-03-05T05:46:35;25.10;31.00
21801;DHT22;11062;51.164;16.924;2023-03-05T05:49:01;25.10;31.10
21801;DHT22;11062;51.164;16.924;2023-03-05T05:51:27;25.00;31.20
21801;DHT22;11062;51.164;16.924;2023-03-05T05:53:53;24.90;31.40
21801;DHT22;11062;51.164;16.924;2023-03-05T05:56:22;24.70;31.70
21801;DHT22;11062;51.164;16.924;2023-03-05T05:58:49;24.60;32.00
21801;DHT22;11062;51.164;16.924;2023-03-05T06:01:22;24.40;32.20
21801;DHT22;11062;51.164;16.924;2023-03-05T06:03:51;24.40;32.50
21801;DHT22;11062;51.164;16.924;2023-03-05T06:06:20;24.40;32.80
21801;DHT22;11062;51.164;16.924;2023-03-05T06:08:46;24.30;33.40
21801;DHT22;11062;51.164;16.924;2023-03-05T06:11:12;24.10;33.10
21801;DHT22;11062;51.164;16.924;2023-03-05T06:13:38;24.10;33.20
21801;DHT22;11062;51.164;16.924;2023-03-05T06:16:07;23.80;33.60
21801;DHT22;11062;51.164;16.924;2023-03-05T06:18:33;23.70;34.10
21801;DHT22;11062;51.164;16.924;2023-03-05T06:21:03;23.60;34.50
21801;DHT22;11062;51.164;16.924;2023-03-05T06:23:29;23.40;34.70
21801;DHT22;11062;51.164;16.924;2023-03-05T06:25:59;23.50;35.00
21801;DHT22;11062;51.164;16.924;2023-03-05T06:28:25;23.30;35.30
21801;DHT22;11062;51.164;16.924;2023-03-05T06:31:01;23.00;35.80
21801;DHT22;11062;51.164;16.924;2023-03-05T06:33:28;22.80;36.30
21801;DHT22;11062;51.164;16.924;2023-03-05T06:35:56;22.60;36.70
21801;DHT22;11062;51.164;16.924;2023-03-05T06:38:22;22.60;37.50
21801;DHT22;11062;51.164;16.924;2023-03-05T06:40:48;22.10;37.10
21801;DHT22;11062;51.164;16.924;2023-03-05T06:43:14;21.60;37.80
21801;DHT22;11062;51.164;16.924;2023-03-05T06:45:40;21.30;38.20
21801;DHT22;11062;51.164;16.924;2023-03-05T06:48:06;21.80;38.50
21801;DHT22;11062;51.164;16.924;2023-03-05T06:50:36;21.40;38.00
21801;DHT22;11062;51.164;16.924;2023-03-05T06:53:02;21.40;38.10
21801;DHT22;11062;51.164;16.924;2023-03-05T06:55:27;21.00;38.80
21801;DHT22;11062;51.164;16.924;2023-03-05T06:57:59;21.20;39.30
21801;DHT22;11062;51.164;16.924;2023-03-05T07:00:25;21.20;38.90
21801;DHT22;11062;51.164;16.924;2023-03-05T07:02:54;21.40;38.90
21801;DHT22;11062;51.164;16.924;2023-03-05T07:05:19;21.30;38.50
21801;DHT22;11062;51.164;16.924;2023-03-05T07:07:45;21.50;38.50
21801;DHT22;11062;51.164;16.924;2023-03-05T07:10:11;21.10;38.30
21801;DHT22;11062;51.164;16.924;2023-03-05T07:12:37;20.90;39.00
21801;DHT22;11062;51.164;16.924;2023-03-05T07:15:03;21.00;39.10
21801;DHT22;11062;51.164;16.924;2023-03-05T07:17:29;21.20;38.40
21801;DHT22;11062;51.164;16.924;2023-03-05T07:19:57;21.10;38.00
21801;DHT22;11062;51.164;16.924;2023-03-05T07:22:23;21.10;38.10
21801;DHT22;11062;51.164;16.924;2023-03-05T07:24:49;21.30;37.60
21801;DHT22;11062;51.164;16.924;2023-03-05T07:27:15;21.30;37.80
21801;DHT22;11062;51.164;16.924;2023-03-05T07:29:41;21.20;37.10
21801;DHT22;11062;51.164;16.924;2023-03-05T07:32:12;20.90;36.70
21801;DHT22;11062;51.164;16.924;2023-03-05T07:34:38;21.10;37.30
21801;DHT22;11062;51.164;16.924;2023-03-05T07:37:04;20.90;36.80
21801;DHT22;11062;51.164;16.924;2023-03-05T07:39:33;20.50;36.90
21801;DHT22;11062;51.164;16.924;2023-03-05T07:42:01;19.60;36.40
21801;DHT22;11062;51.164;16.924;2023-03-05T07:44:26;18.80;36.90
21801;DHT22;11062;51.164;16.924;2023-03-05T07:46:52;19.90;40.60
21801;DHT22;11062;51.164;16.924;2023-03-05T07:49:18;20.00;40.90
21801;DHT22;11062;51.164;16.924;2023-03-05T07:51:48;19.20;37.50
21801;DHT22;11062;51.164;16.924;2023-03-05T07:54:14;19.60;38.60
21801;DHT22;11062;51.164;16.924;2023-03-05T07:56:40;19.60;38.50
21801;DHT22;11062;51.164;16.924;2023-03-05T07:59:11;19.70;38.40
21801;DHT22;11062;51.164;16.924;2023-03-05T08:01:38;19.90;37.10
21801;DHT22;11062;51.164;16.924;2023-03-05T08:04:05;20.20;38.30
21801;DHT22;11062;51.164;16.924;2023-03-05T08:06:32;18.90;36.60
21801;DHT22;11062;51.164;16.924;2023-03-05T08:08:59;18.40;37.40
21801;DHT22;11062;51.164;16.924;2023-03-05T08:11:26;18.00;37.80
21801;DHT22;11062;51.164;16.924;2023-03-05T08:13:53;18.10;37.70
21801;DHT22;11062;51.164;16.924;2023-03-05T08:16:20;18.80;38.80
21801;DHT22;11062;51.164;16.924;2023-03-05T08:18:46;18.00;36.80
21801;DHT22;11062;51.164;16.924;2023-03-05T08:21:21;18.90;37.50
21801;DHT22;11062;51.164;16.924;2023-03-05T08:23:47;17.80;36.00
21801;DHT22;11062;51.164;16.924;2023-03-05T08:26:18;18.00;36.50
21801;DHT22;11062;51.164;16.924;2023-03-05T08:28:45;18.50;36.90
21801;DHT22;11062;51.164;16.924;2023-03-05T08:31:12;18.90;38.20
21801;DHT22;11062;51.164;16.924;2023-03-05T08:33:38;18.30;38.30
21801;DHT22;11062;51.164;16.924;2023-03-05T08:36:05;18.00;39.40
21801;DHT22;11062;51.164;16.924;2023-03-05T08:38:31;18.20;39.10
21801;DHT22;11062;51.164;16.924;2023-03-05T08:40:57;19.00;40.40
21801;DHT22;11062;51.164;16.924;2023-03-05T08:43:23;19.20;39.90
21801;DHT22;11062;51.164;16.924;2023-03-05T08:45:49;19.60;39.00
21801;DHT22;11062;51.164;16.924;2023-03-05T08:48:16;19.50;38.20
21801;DHT22;11062;51.164;16.924;2023-03-05T08:50:42;18.40;38.30
21801;DHT22;11062;51.164;16.924;2023-03-05T08:53:07;19.50;39.50
21801;DHT22;11062;51.164;16.924;2023-03-05T08:55:33;19.30;39.90
21801;DHT22;11062;51.164;16.924;2023-03-05T08:57:59;19.30;40.30
21801;DHT22;11062;51.164;16.924;2023-03-05T09:00:25;19.40;40.10
21801;DHT22;11062;51.164;16.924;2023-03-05T09:02:51;18.20;39.50
21801;DHT22;11062;51.164;16.924;2023-03-05T09:05:17;18.80;39.70
21801;DHT22;11062;51.164;16.924;2023-03-05T09:07:45;19.00;39.80
21801;DHT22;11062;51.164;16.924;2023-03-05T09:10:12;18.80;38.20
21801;DHT22;11062;51.164;16.924;2023-03-05T09:12:40;19.40;39.30
21801;DHT22;11062;51.164;16.924;2023-03-05T09:15:07;18.80;39.10
21801;DHT22;11062;51.164;16.924;2023-03-05T09:17:37;17.80;39.60
21801;DHT22;11062;51.164;16.924;2023-03-05T09:20:04;18.20;40.10
21801;DHT22;11062;51.164;16.924;2023-03-05T09:22:30;18.50;40.60
21801;DHT22;11062;51.164;16.924;2023-03-05T09:24:56;18.00;41.20
21801;DHT22;11062;51.164;16.924;2023-03-05T09:27:23;17.80;40.90
21801;DHT22;11062;51.164;16.924;2023-03-05T09:29:51;17.70;40.60
21801;DHT22;11062;51.164;16.924;2023-03-05T09:32:17;18.40;41.60
21801;DHT22;11062;51.164;16.924;2023-03-05T09:34:43;17.70;41.30
21801;DHT22;11062;51.164;16.924;2023-03-05T09:37:12;17.30;41.20
21801;DHT22;11062;51.164;16.924;2023-03-05T09:39:38;18.60;41.40
21801;DHT22;11062;51.164;16.924;2023-03-05T09:45:11;19.80;39.50
21801;DHT22;11062;51.164;16.924;2023-03-05T09:50:36;19.40;38.00
21801;DHT22;11062;51.164;16.924;2023-03-05T09:56:39;19.90;38.30
21801;DHT22;11062;51.164;16.924;2023-03-05T10:02:43;19.70;37.60
21801;DHT22;11062;51.164;16.924;2023-03-05T10:05:18;19.50;38.20
21801;DHT22;11062;51.164;16.924;2023-03-05T10:07:49;21.30;38.30
21801;DHT22;11062;51.164;16.924;2023-03-05T10:10:35;19.90;37.30
21801;DHT22;11062;51.164;16.924;2023-03-05T10:13:13;20.20;36.40
21801;DHT22;11062;51.164;16.924;2023-03-05T10:18:49;20.80;36.40
21801;DHT22;11062;51.164;16.924;2023-03-05T10:21:45;20.90;35.90
21801;DHT22;11062;51.164;16.924;2023-03-05T10:24:54;19.30;34.10
21801;DHT22;11062;51.164;16.924;2023-03-05T10:27:49;18.90;34.40
21801;DHT22;11062;51.164;16.924;2023-03-05T10:45:13;19.70;33.60
21801;DHT22;11062;51.164;16.924;2023-03-05T10:50:41;21.00;33.20
21801;DHT22;11062;51.164;16.924;2023-03-05T10:57:23;21.20;33.70
21801;DHT22;11062;51.164;16.924;2023-03-05T10:59:56;21.10;33.30
21801;DHT22;11062;51.164;16.924;2023-03-05T11:02:23;20.60;33.10
21801;DHT22;11062;51.164;16.924;2023-03-05T11:04:52;21.60;34.50
21801;DHT22;11062;51.164;16.924;2023-03-05T11:10:09;21.60;35.20
21801;DHT22;11062;51.164;16.924;2023-03-05T11:12:38;21.70;34.40
21801;DHT22;11062;51.164;16.924;2023-03-05T11:17:47;21.10;34.80
21801;DHT22;11062;51.164;16.924;2023-03-05T11:20:32;21.50;34.10
21801;DHT22;11062;51.164;16.924;2023-03-05T11:23:13;21.40;35.00
21801;DHT22;11062;51.164;16.924;2023-03-05T11:25:56;21.60;34.10
21801;DHT22;11062;51.164;16.924;2023-03-05T11:28:27;21.60;34.40
21801;DHT22;11062;51.164;16.924;2023-03-05T11:36:57;22.10;33.60
21801;DHT22;11062;51.164;16.924;2023-03-05T11:39:28;21.70;33.60
21801;DHT22;11062;51.164;16.924;2023-03-05T11:42:04;22.40;34.30
21801;DHT22;11062;51.164;16.924;2023-03-05T11:44:47;22.00;34.20
21801;DHT22;11062;51.164;16.924;2023-03-05T11:50:26;22.80;33.20
21801;DHT22;11062;51.164;16.924;2023-03-05T12:00:52;21.30;34.70
21801;DHT22;11062;51.164;16.924;2023-03-05T12:03:24;21.50;35.20
21801;DHT22;11062;51.164;16.924;2023-03-05T12:05:56;21.70;34.80
21801;DHT22;11062;51.164;16.924;2023-03-05T12:08:34;21.90;35.10
21801;DHT22;11062;51.164;16.924;2023-03-05T12:11:08;21.20;34.50
21801;DHT22;11062;51.164;16.924;2023-03-05T12:13:48;21.60;36.10
21801;DHT22;11062;51.164;16.924;2023-03-05T12:21:41;22.40;33.50
21801;DHT22;11062;51.164;16.924;2023-03-05T12:29:41;22.40;35.60
21801;DHT22;11062;51.164;16.924;2023-03-05T12:42:39;21.30;34.80
21801;DHT22;11062;51.164;16.924;2023-03-05T12:48:32;20.60;36.80
21801;DHT22;11062;51.164;16.924;2023-03-05T12:53:15;20.30;37.80
21801;DHT22;11062;51.164;16.924;2023-03-05T13:03:56;20.10;39.50
21801;DHT22;11062;51.164;16.924;2023-03-05T13:06:29;19.80;40.30
21801;DHT22;11062;51.164;16.924;2023-03-05T13:09:02;19.00;39.90
21801;DHT22;11062;51.164;16.924;2023-03-05T13:11:33;20.00;39.50
21801;DHT22;11062;51.164;16.924;2023-03-05T13:14:02;20.20;39.20
21801;DHT22;11062;51.164;16.924;2023-03-05T13:16:35;19.80;39.10
21801;DHT22;11062;51.164;16.924;2023-03-05T13:19:01;20.10;38.90
21801;DHT22;11062;51.164;16.924;2023-03-05T13:21:32;19.50;38.10
21801;DHT22;11062;51.164;16.924;2023-03-05T13:24:01;20.50;37.90
21801;DHT22;11062;51.164;16.924;2023-03-05T13:26:39;20.80;38.90
21801;DHT22;11062;51.164;16.924;2023-03-05T13:29:16;20.40;37.10
21801;DHT22;11062;51.164;16.924;2023-03-05T13:31:49;21.00;36.80
21801;DHT22;11062;51.164;16.924;2023-03-05T13:39:32;23.50;38.10
21801;DHT22;11062;51.164;16.924;2023-03-05T13:42:01;21.80;36.30
21801;DHT22;11062;51.164;16.924;2023-03-05T13:44:29;20.80;36.20
21801;DHT22;11062;51.164;16.924;2023-03-05T13:47:17;21.60;36.60
21801;DHT22;11062;51.164;16.924;2023-03-05T13:49:43;22.20;36.20
21801;DHT22;11062;51.164;16.924;2023-03-05T13:52:10;21.70;36.00
21801;DHT22;11062;51.164;16.924;2023-03-05T13:54:40;22.60;36.10
21801;DHT22;11062;51.164;16.924;2023-03-05T13:57:28;22.60;36.30
21801;DHT22;11062;51.164;16.924;2023-03-05T13:59:53;22.80;35.30
21801;DHT22;11062;51.164;16.924;2023-03-05T14:02:19;22.90;36.30
21801;DHT22;11062;51.164;16.924;2023-03-05T14:04:49;22.80;35.40
21801;DHT22;11062;51.164;16.924;2023-03-05T14:07:48;23.40;35.70
21801;DHT22;11062;51.164;16.924;2023-03-05T14:10:39;23.30;34.90
21801;DHT22;11062;51.164;16.924;2023-03-05T14:13:17;23.80;34.00
21801;DHT22;11062;51.164;16.924;2023-03-05T14:18:27;24.20;33.90
21801;DHT22;11062;51.164;16.924;2023-03-05T14:21:06;24.20;33.20
21801;DHT22;11062;51.164;16.924;2023-03-05T14:23:40;24.40;32.50
21801;DHT22;11062;51.164;16.924;2023-03-05T14:26:26;24.60;31.30
21801;DHT22;11062;51.164;16.924;2023-03-05T14:29:15;25.20;31.50
21801;DHT22;11062;51.164;16.924;2023-03-05T14:32:15;25.30;31.50
21801;DHT22;11062;51.164;16.924;2023-03-05T14:34:51;25.20;31.00
21801;DHT22;11062;51.164;16.924;2023-03-05T14:37:33;25.10;31.20
21801;DHT22;11062;51.164;16.924;2023-03-05T14:40:25;25.20;31.10
21801;DHT22;11062;51.164;16.924;2023-03-05T14:43:17;25.50;31.40
21801;DHT22;11062;51.164;16.924;2023-03-05T14:45:43;25.40;31.70
21801;DHT22;11062;51.164;16.924;2023-03-05T14:51:08;25.50;31.00
21801;DHT22;11062;51.164;16.924;2023-03-05T14:53:45;25.30;31.20
21801;DHT22;11062;51.164;16.924;2023-03-05T14:56:24;25.30;31.30
21801;DHT22;11062;51.164;16.924;2023-03-05T14:58:51;24.80;31.30
21801;DHT22;11062;51.164;16.924;2023-03-05T15:01:17;25.20;32.10
21801;DHT22;11062;51.164;16.924;2023-03-05T15:03:57;24.30;31.50
21801;DHT22;11062;51.164;16.924;2023-03-05T15:06:31;24.90;31.80
21801;DHT22;11062;51.164;16.924;2023-03-05T15:09:20;24.40;32.00
21801;DHT22;11062;51.164;16.924;2023-03-05T15:11:51;23.90;33.50
21801;DHT22;11062;51.164;16.924;2023-03-05T15:14:17;22.90;33.20
21801;DHT22;11062;51.164;16.924;2023-03-05T15:16:47;23.10;35.30
21801;DHT22;11062;51.164;16.924;2023-03-05T15:19:13;21.60;34.90
21801;DHT22;11062;51.164;16.924;2023-03-05T15:21:42;22.90;36.00
21801;DHT22;11062;51.164;16.924;2023-03-05T15:24:08;22.90;36.10
21801;DHT22;11062;51.164;16.924;2023-03-05T15:27:01;21.90;36.20
21801;DHT22;11062;51.164;16.924;2023-03-05T15:29:28;22.50;36.60
21801;DHT22;11062;51.164;16.924;2023-03-05T15:31:54;22.80;36.90
21801;DHT22;11062;51.164;16.924;2023-03-05T15:34:20;22.70;36.30
21801;DHT22;11062;51.164;16.924;2023-03-05T15:36:46;23.00;36.60
21801;DHT22;11062;51.164;16.924;2023-03-05T15:39:12;22.60;36.10
21801;DHT22;11062;51.164;16.924;2023-03-05T15:41:59;22.90;35.90
21801;DHT22;11062;51.164;16.924;2023-03-05T15:44:26;21.90;34.60
21801;DHT22;11062;51.164;16.924;2023-03-05T15:47:28;23.70;36.00
21801;DHT22;11062;51.164;16.924;2023-03-05T15:49:54;22.40;34.20
21801;DHT22;11062;51.164;16.924;2023-03-05T15:52:20;23.60;34.80
21801;DHT22;11062;51.164;16.924;2023-03-05T15:54:48;23.70;35.10
21801;DHT22;11062;51.164;16.924;2023-03-05T15:57:20;23.40;34.30
21801;DHT22;11062;51.164;16.924;2023-03-05T15:59:55;23.10;34.30
21801;DHT22;11062;51.164;16.924;2023-03-05T16:02:24;23.40;34.30
21801;DHT22;11062;51.164;16.924;2023-03-05T16:04:50;23.40;33.60
21801;DHT22;11062;51.164;16.924;2023-03-05T16:07:16;23.80;34.30
21801;DHT22;11062;51.164;16.924;2023-03-05T16:09:46;25.10;34.80
21801;DHT22;11062;51.164;16.924;2023-03-05T16:12:16;24.60;34.10
21801;DHT22;11062;51.164;16.924;2023-03-05T16:14:45;24.40;33.70
21801;DHT22;11062;51.164;16.924;2023-03-05T16:17:12;23.80;33.40
21801;DHT22;11062;51.164;16.924;2023-03-05T16:19:42;24.20;33.40
21801;DHT22;11062;51.164;16.924;2023-03-05T16:22:09;24.70;34.30
21801;DHT22;11062;51.164;16.924;2023-03-05T16:24:35;24.40;33.80
21801;DHT22;11062;51.164;16.924;2023-03-05T16:27:01;24.70;33.80
21801;DHT22;11062;51.164;16.924;2023-03-05T16:29:27;24.60;34.10
21801;DHT22;11062;51.164;16.924;2023-03-05T16:31:53;24.40;33.70
21801;DHT22;11062;51.164;16.924;2023-03-05T16:34:19;24.40;34.00
21801;DHT22;11062;51.164;16.924;2023-03-05T16:36:47;24.40;34.30
21801;DHT22;11062;51.164;16.924;2023-03-05T16:39:21;23.50;33.40
21801;DHT22;11062;51.164;16.924;2023-03-05T16:41:57;23.70;33.50
21801;DHT22;11062;51.164;16.924;2023-03-05T16:44:23;23.90;34.60
21801;DHT22;11062;51.164;16.924;2023-03-05T16:46:49;23.30;33.90
21801;DHT22;11062;51.164;16.924;2023-03-05T16:49:18;24.10;34.80
21801;DHT22;11062;51.164;16.924;2023-03-05T16:51:44;24.00;34.50
21801;DHT22;11062;51.164;16.924;2023-03-05T16:54:13;23.80;34.50
21801;DHT22;11062;51.164;16.924;2023-03-05T16:56:39;23.70;35.40
21801;DHT22;11062;51.164;16.924;2023-03-05T16:59:05;23.60;35.20
21801;DHT22;11062;51.164;16.924;2023-03-05T17:01:31;22.80;35.40
21801;DHT22;11062;51.164;16.924;2023-03-05T17:03:58;23.20;35.60
21801;DHT22;11062;51.164;16.924;2023-03-05T17:06:27;23.50;35.60
21801;DHT22;11062;51.164;16.924;2023-03-05T17:08:54;23.10;35.60
21801;DHT22;11062;51.164;16.924;2023-03-05T17:11:20;22.40;35.70
21801;DHT22;11062;51.164;16.924;2023-03-05T17:13:46;22.50;35.80
21801;DHT22;11062;51.164;16.924;2023-03-05T17:16:13;23.30;36.70